sensor_id;sensor_type;location;lat;lon;timestamp;P1;durP1;ratioP1;P2;durP2;ratioP2
22673;SDS011;11504;43.334;21.918;2023-05-28T00:04:11;31.0;;;30.0;;
22673;SDS011;11504;43.334;21.918;2023-05-28T00:08:48;28.0;;;27.0;;
22673;SDS011;11504;43.334;21.918;2023-05-28T00:13:25;28.0;;;27.0;;
22673;SDS011;11504;43.334;21.918;2023-05-28T00:18:06;26.0;;;24.0;;
22673;SDS011;11504;43.334;21.918;2023-05-28T00:22:43;26.0;;;24.0;;
22673;SDS011;11504;43.334;21.918;2023-05-28T00:27:20;24.0;;;22.0;;
22673;SDS011;11504;43.334;21.918;2023-05-28T00:31:57;24.0;;;22.0;;
22673;SDS011;11504;43.334;21.918;2023-05-28T00:36:34;21.0;;;20.0;;
22673;SDS011;11504;43.334;21.918;2023-05-28T00:41:11;21.0;;;20.0;;
22673;SDS011;11504;43.334;21.918;2023-05-28T00:45:48;24.0;;;22.0;;
22673;SDS011;11504;43.334;21.918;2023-05-28T00:50:27;24.0;;;22.0;;
22673;SDS011;11504;43.334;21.918;2023-05-28T00:55:07;27.0;;;24.0;;
22673;SDS011;11504;43.334;21.918;2023-05-28T00:59:52;27.0;;;24.0;;
22673;SDS011;11504;43.334;21.918;2023-05-28T01:04:30;26.0;;;24.0;;
22673;SDS011;11504;43.334;21.918;2023-05-28T01:09:08;26.0;;;24.0;;
22673;SDS011;11504;43.334;21.918;2023-05-28T01:13:48;26.0;;;24.0;;
22673;SDS011;11504;43.334;21.918;2023-05-28T01:18:27;26.0;;;24.0;;
22673;SDS011;11504;43.334;21.918;2023-05-28T01:23:06;26.0;;;24.0;;
22673;SDS011;11504;43.334;21.918;2023-05-28T01:27:54;26.0;;;24.0;;
22673;SDS011;11504;43.334;21.918;2023-05-28T01:32:30;26.0;;;24.0;;
22673;SDS011;11504;43.334;21.918;2023-05-28T01:37:07;25.0;;;24.0;;
22673;SDS011;11504;43.334;21.918;2023-05-28T01:41:52;25.0;;;24.0;;
22673;SDS011;11504;43.334;21.918;2023-05-28T01:46:33;26.0;;;24.0;;
22673;SDS011;11504;43.334;21.918;2023-05-28T01:51:13;26.0;;;24.0;;
22673;SDS011;11504;43.334;21.918;2023-05-28T01:55:56;26.0;;;24.0;;
22673;SDS011;11504;43.334;21.918;2023-05-28T02:00:33;26.0;;;24.0;;
22673;SDS011;11504;43.334;21.918;2023-05-28T02:05:47;24.0;;;23.0;;
22673;SDS011;11504;43.334;21.918;2023-05-28T02:10:23;24.0;;;23.0;;
22673;SDS011;11504;43.334;21.918;2023-05-28T02:14:59;23.0;;;22.0;;
22673;SDS011;11504;43.334;21.918;2023-05-28T02:19:36;23.0;;;22.0;;
22673;SDS011;11504;43.334;21.918;2023-05-28T02:24:13;23.0;;;22.0;;
22673;SDS011;11504;43.334;21.918;2023-05-28T02:28:50;20.0;;;19.0;;
22673;SDS011;11504;43.334;21.918;2023-05-28T02:33:27;20.0;;;19.0;;
22673;SDS011;11504;43.334;21.918;2023-05-28T02:38:04;17.0;;;16.0;;
22673;SDS011;11504;43.334;21.918;2023-05-28T02:42:40;17.0;;;16.0;;
22673;SDS011;11504;43.334;21.918;2023-05-28T02:47:18;17.0;;;16.0;;
22673;SDS011;11504;43.334;21.918;2023-05-28T02:51:54;17.0;;;16.0;;
22673;SDS011;11504;43.334;21.918;2023-05-28T02:56:31;17.0;;;16.0;;
22673;SDS011;11504;43.334;21.918;2023-05-28T03:01:08;17.0;;;16.0;;
22673;SDS011;11504;43.334;21.918;2023-05-28T03:05:45;21.0;;;20.0;;
22673;SDS011;11504;43.334;21.918;2023-05-28T03:10:25;21.0;;;20.0;;
22673;SDS011;11504;43.334;21.918;2023-05-28T03:15:02;25.0;;;24.0;;
22673;SDS011;11504;43.334;21.918;2023-05-28T03:19:43;25.0;;;24.0;;
22673;SDS011;11504;43.334;21.918;2023-05-28T03:24:19;25.0;;;24.0;;
22673;SDS011;11504;43.334;21.918;2023-05-28T03:28:56;28.0;;;26.0;;
22673;SDS011;11504;43.334;21.918;2023-05-28T03:33:33;28.0;;;26.0;;
22673;SDS011;11504;43.334;21.918;2023-05-28T03:38:09;31.0;;;28.0;;
22673;SDS011;11504;43.334;21.918;2023-05-28T03:42:46;31.0;;;28.0;;
22673;SDS011;11504;43.334;21.918;2023-05-28T03:47:22;30.0;;;26.0;;
22673;SDS011;11504;43.334;21.918;2023-05-28T03:51:58;30.0;;;26.0;;
22673;SDS011;11504;43.334;21.918;2023-05-28T03:56:34;28.0;;;24.0;;
22673;SDS011;11504;43.334;21.918;2023-05-28T04:01:11;28.0;;;24.0;;
22673;SDS011;11504;43.334;21.918;2023-05-28T04:05:47;27.0;;;24.0;;
22673;SDS011;11504;43.334;21.918;2023-05-28T04:10:23;27.0;;;24.0;;
22673;SDS011;11504;43.334;21.918;2023-05-28T04:15:00;26.0;;;25.0;;
22673;SDS011;11504;43.334;21.918;2023-05-28T04:19:36;26.0;;;25.0;;
22673;SDS011;11504;43.334;21.918;2023-05-28T04:24:13;26.0;;;25.0;;
22673;SDS011;11504;43.334;21.918;2023-05-28T04:28:50;26.0;;;24.0;;
22673;SDS011;11504;43.334;21.918;2023-05-28T04:33:27;26.0;;;24.0;;
22673;SDS011;11504;43.334;21.918;2023-05-28T04:38:04;26.0;;;24.0;;
22673;SDS011;11504;43.334;21.918;2023-05-28T04:42:40;26.0;;;24.0;;
22673;SDS011;11504;43.334;21.918;2023-05-28T04:47:17;24.0;;;22.0;;
22673;SDS011;11504;43.334;21.918;2023-05-28T04:51:54;24.0;;;22.0;;
22673;SDS011;11504;43.334;21.918;2023-05-28T04:56:31;22.0;;;21.0;;
22673;SDS011;11504;43.334;21.918;2023-05-28T05:01:08;22.0;;;21.0;;
22673;SDS011;11504;43.334;21.918;2023-05-28T05:05:45;22.0;;;21.0;;
22673;SDS011;11504;43.334;21.918;2023-05-28T05:10:22;22.0;;;21.0;;
22673;SDS011;11504;43.334;21.918;2023-05-28T05:14:59;22.0;;;21.0;;
22673;SDS011;11504;43.334;21.918;2023-05-28T05:19:36;22.0;;;21.0;;
22673;SDS011;11504;43.334;21.918;2023-05-28T05:24:13;22.0;;;21.0;;
22673;SDS011;11504;43.334;21.918;2023-05-28T05:28:50;21.0;;;20.0;;
22673;SDS011;11504;43.334;21.918;2023-05-28T05:33:27;21.0;;;20.0;;
22673;SDS011;11504;43.334;21.918;2023-05-28T05:38:04;20.0;;;19.0;;
22673;SDS011;11504;43.334;21.918;2023-05-28T05:42:41;20.0;;;19.0;;
22673;SDS011;11504;43.334;21.918;2023-05-28T05:47:18;20.0;;;20.0;;
22673;SDS011;11504;43.334;21.918;2023-05-28T05:51:55;20.0;;;20.0;;
22673;SDS011;11504;43.334;21.918;2023-05-28T05:56:32;21.0;;;20.0;;
22673;SDS011;11504;43.334;21.918;2023-05-28T06:01:09;21.0;;;20.0;;
22673;SDS011;11504;43.334;21.918;2023-05-28T06:05:45;22.0;;;21.0;;
22673;SDS011;11504;43.334;21.918;2023-05-28T06:10:22;22.0;;;21.0;;
22673;SDS011;11504;43.334;21.918;2023-05-28T06:14:59;23.0;;;22.0;;
22673;SDS011;11504;43.334;21.918;2023-05-28T06:19:37;23.0;;;22.0;;
22673;SDS011;11504;43.334;21.918;2023-05-28T06:24:13;23.0;;;22.0;;
22673;SDS011;11504;43.334;21.918;2023-05-28T06:28:50;24.0;;;22.0;;
22673;SDS011;11504;43.334;21.918;2023-05-28T06:33:26;24.0;;;22.0;;
22673;SDS011;11504;43.334;21.918;2023-05-28T06:38:02;24.0;;;23.0;;
22673;SDS011;11504;43.334;21.918;2023-05-28T06:42:39;24.0;;;23.0;;
22673;SDS011;11504;43.334;21.918;2023-05-28T06:47:15;24.0;;;22.0;;
22673;SDS011;11504;43.334;21.918;2023-05-28T06:51:51;24.0;;;22.0;;
22673;SDS011;11504;43.334;21.918;2023-05-28T06:56:27;23.0;;;22.0;;
22673;SDS011;11504;43.334;21.918;2023-05-28T07:01:04;23.0;;;22.0;;
22673;SDS011;11504;43.334;21.918;2023-05-28T07:05:40;20.0;;;20.0;;
22673;SDS011;11504;43.334;21.918;2023-05-28T07:10:17;20.0;;;20.0;;
22673;SDS011;11504;43.334;21.918;2023-05-28T07:14:54;18.0;;;17.0;;
22673;SDS011;11504;43.334;21.918;2023-05-28T07:19:30;18.0;;;17.0;;
22673;SDS011;11504;43.334;21.918;2023-05-28T07:24:07;18.0;;;17.0;;
22673;SDS011;11504;43.334;21.918;2023-05-28T07:28:43;18.0;;;18.0;;
22673;SDS011;11504;43.334;21.918;2023-05-28T07:33:20;18.0;;;18.0;;
22673;SDS011;11504;43.334;21.918;2023-05-28T07:37:56;19.0;;;18.0;;
22673;SDS011;11504;43.334;21.918;2023-05-28T07:42:33;19.0;;;18.0;;
22673;SDS011;11504;43.334;21.918;2023-05-28T07:47:09;19.0;;;18.0;;
22673;SDS011;11504;43.334;21.918;2023-05-28T07:51:49;19.0;;;18.0;;
22673;SDS011;11504;43.334;21.918;2023-05-28T07:56:26;19.0;;;18.0;;
22673;SDS011;11504;43.334;21.918;2023-05-28T08:01:02;19.0;;;18.0;;
22673;SDS011;11504;43.334;21.918;2023-05-28T08:05:39;18.0;;;18.0;;
22673;SDS011;11504;43.334;21.918;2023-05-28T08:10:16;18.0;;;18.0;;
22673;SDS011;11504;43.334;21.918;2023-05-28T08:14:53;18.0;;;17.0;;
22673;SDS011;11504;43.334;21.918;2023-05-28T08:19:30;18.0;;;17.0;;
22673;SDS011;11504;43.334;21.918;2023-05-28T08:24:07;18.0;;;17.0;;
22673;SDS011;11504;43.334;21.918;2023-05-28T08:28:44;17.0;;;16.0;;
22673;SDS011;11504;43.334;21.918;2023-05-28T08:33:21;17.0;;;16.0;;
22673;SDS011;11504;43.334;21.918;2023-05-28T08:37:59;16.0;;;16.0;;
22673;SDS011;11504;43.334;21.918;2023-05-28T08:42:37;16.0;;;16.0;;
22673;SDS011;11504;43.334;21.918;2023-05-28T08:47:14;16.0;;;16.0;;
22673;SDS011;11504;43.334;21.918;2023-05-28T08:51:53;16.0;;;16.0;;
22673;SDS011;11504;43.334;21.918;2023-05-28T08:56:43;16.0;;;15.0;;
22673;SDS011;11504;43.334;21.918;2023-05-28T09:01:20;16.0;;;15.0;;
22673;SDS011;11504;43.334;21.918;2023-05-28T09:05:58;15.0;;;14.0;;
22673;SDS011;11504;43.334;21.918;2023-05-28T09:10:36;15.0;;;14.0;;
22673;SDS011;11504;43.334;21.918;2023-05-28T09:15:15;14.0;;;13.0;;
22673;SDS011;11504;43.334;21.918;2023-05-28T09:19:59;14.0;;;13.0;;
22673;SDS011;11504;43.334;21.918;2023-05-28T09:24:35;14.0;;;13.0;;
22673;SDS011;11504;43.334;21.918;2023-05-28T09:29:11;15.0;;;14.0;;
22673;SDS011;11504;43.334;21.918;2023-05-28T09:33:48;15.0;;;14.0;;
22673;SDS011;11504;43.334;21.918;2023-05-28T09:38:24;16.0;;;14.0;;
22673;SDS011;11504;43.334;21.918;2023-05-28T09:43:12;16.0;;;14.0;;
22673;SDS011;11504;43.334;21.918;2023-05-28T09:47:48;16.0;;;14.0;;
22673;SDS011;11504;43.334;21.918;2023-05-28T09:52:25;16.0;;;14.0;;
22673;SDS011;11504;43.334;21.918;2023-05-28T09:57:05;15.0;;;14.0;;
22673;SDS011;11504;43.334;21.918;2023-05-28T10:01:53;15.0;;;14.0;;
22673;SDS011;11504;43.334;21.918;2023-05-28T10:07:21;16.0;;;14.0;;
22673;SDS011;11504;43.334;21.918;2023-05-28T10:12:08;16.0;;;14.0;;
22673;SDS011;11504;43.334;21.918;2023-05-28T10:17:05;16.0;;;15.0;;
22673;SDS011;11504;43.334;21.918;2023-05-28T10:21:47;16.0;;;15.0;;
22673;SDS011;11504;43.334;21.918;2023-05-28T10:26:26;16.0;;;14.0;;
22673;SDS011;11504;43.334;21.918;2023-05-28T10:31:07;16.0;;;14.0;;
22673;SDS011;11504;43.334;21.918;2023-05-28T10:35:53;15.0;;;14.0;;
22673;SDS011;11504;43.334;21.918;2023-05-28T10:40:38;15.0;;;14.0;;
22673;SDS011;11504;43.334;21.918;2023-05-28T10:45:16;14.0;;;14.0;;
22673;SDS011;11504;43.334;21.918;2023-05-28T10:49:57;14.0;;;14.0;;
22673;SDS011;11504;43.334;21.918;2023-05-28T10:54:51;14.0;;;14.0;;
22673;SDS011;11504;43.334;21.918;2023-05-28T10:59:37;14.0;;;14.0;;
22673;SDS011;11504;43.334;21.918;2023-05-28T11:04:31;14.0;;;14.0;;
22673;SDS011;11504;43.334;21.918;2023-05-28T11:09:12;14.0;;;14.0;;
22673;SDS011;11504;43.334;21.918;2023-05-28T11:13:49;14.0;;;14.0;;
22673;SDS011;11504;43.334;21.918;2023-05-28T11:18:25;14.0;;;14.0;;
22673;SDS011;11504;43.334;21.918;2023-05-28T11:23:13;14.0;;;14.0;;
22673;SDS011;11504;43.334;21.918;2023-05-28T11:27:51;14.0;;;14.0;;
22673;SDS011;11504;43.334;21.918;2023-05-28T11:32:31;14.0;;;14.0;;
22673;SDS011;11504;43.334;21.918;2023-05-28T11:37:10;15.0;;;14.0;;
22673;SDS011;11504;43.334;21.918;2023-05-28T11:41:48;15.0;;;14.0;;
22673;SDS011;11504;43.334;21.918;2023-05-28T11:46:24;14.0;;;14.0;;
22673;SDS011;11504;43.334;21.918;2023-05-28T11:51:02;14.0;;;14.0;;
22673;SDS011;11504;43.334;21.918;2023-05-28T11:55:40;14.0;;;14.0;;
22673;SDS011;11504;43.334;21.918;2023-05-28T12:00:17;14.0;;;14.0;;
22673;SDS011;11504;43.334;21.918;2023-05-28T12:04:55;14.0;;;14.0;;
22673;SDS011;11504;43.334;21.918;2023-05-28T12:09:36;14.0;;;14.0;;
22673;SDS011;11504;43.334;21.918;2023-05-28T12:14:12;14.0;;;14.0;;
22673;SDS011;11504;43.334;21.918;2023-05-28T12:18:49;13.0;;;13.0;;
22673;SDS011;11504;43.334;21.918;2023-05-28T12:23:25;13.0;;;13.0;;
22673;SDS011;11504;43.334;21.918;2023-05-28T12:28:02;18.0;;;16.0;;
22673;SDS011;11504;43.334;21.918;2023-05-28T12:32:38;18.0;;;16.0;;
22673;SDS011;11504;43.334;21.918;2023-05-28T12:37:15;22.0;;;20.0;;
22673;SDS011;11504;43.334;21.918;2023-05-28T12:41:52;22.0;;;20.0;;
22673;SDS011;11504;43.334;21.918;2023-05-28T12:46:28;18.0;;;16.0;;
22673;SDS011;11504;43.334;21.918;2023-05-28T12:51:05;18.0;;;16.0;;
22673;SDS011;11504;43.334;21.918;2023-05-28T12:55:41;13.0;;;12.0;;
22673;SDS011;11504;43.334;21.918;2023-05-28T13:00:18;13.0;;;12.0;;
22673;SDS011;11504;43.334;21.918;2023-05-28T13:04:56;13.0;;;12.0;;
22673;SDS011;11504;43.334;21.918;2023-05-28T13:09:33;11.0;;;10.0;;
22673;SDS011;11504;43.334;21.918;2023-05-28T13:14:10;11.0;;;10.0;;
22673;SDS011;11504;43.334;21.918;2023-05-28T13:18:48;9.0;;;9.0;;
22673;SDS011;11504;43.334;21.918;2023-05-28T13:23:24;9.0;;;9.0;;
22673;SDS011;11504;43.334;21.918;2023-05-28T13:28:01;10.0;;;10.0;;
22673;SDS011;11504;43.334;21.918;2023-05-28T13:32:39;10.0;;;10.0;;
22673;SDS011;11504;43.334;21.918;2023-05-28T13:37:15;10.0;;;10.0;;
22673;SDS011;11504;43.334;21.918;2023-05-28T13:41:53;10.0;;;10.0;;
22673;SDS011;11504;43.334;21.918;2023-05-28T13:46:30;10.0;;;10.0;;
22673;SDS011;11504;43.334;21.918;2023-05-28T13:51:07;10.0;;;10.0;;
22673;SDS011;11504;43.334;21.918;2023-05-28T13:55:44;11.0;;;10.0;;
22673;SDS011;11504;43.334;21.918;2023-05-28T14:00:20;11.0;;;10.0;;
22673;SDS011;11504;43.334;21.918;2023-05-28T14:04:57;11.0;;;10.0;;
22673;SDS011;11504;43.334;21.918;2023-05-28T14:09:34;14.0;;;12.0;;
22673;SDS011;11504;43.334;21.918;2023-05-28T14:14:12;14.0;;;12.0;;
22673;SDS011;11504;43.334;21.918;2023-05-28T14:18:49;16.0;;;13.0;;
22673;SDS011;11504;43.334;21.918;2023-05-28T14:23:26;16.0;;;13.0;;
22673;SDS011;11504;43.334;21.918;2023-05-28T14:28:02;14.0;;;12.0;;
22673;SDS011;11504;43.334;21.918;2023-05-28T14:32:39;14.0;;;12.0;;
22673;SDS011;11504;43.334;21.918;2023-05-28T14:37:15;13.0;;;12.0;;
22673;SDS011;11504;43.334;21.918;2023-05-28T14:41:51;13.0;;;12.0;;
22673;SDS011;11504;43.334;21.918;2023-05-28T14:46:28;12.0;;;12.0;;
22673;SDS011;11504;43.334;21.918;2023-05-28T14:51:04;12.0;;;12.0;;
22673;SDS011;11504;43.334;21.918;2023-05-28T14:55:41;12.0;;;11.0;;
22673;SDS011;11504;43.334;21.918;2023-05-28T15:00:17;12.0;;;11.0;;
22673;SDS011;11504;43.334;21.918;2023-05-28T15:04:54;12.0;;;11.0;;
22673;SDS011;11504;43.334;21.918;2023-05-28T15:09:30;10.0;;;10.0;;
22673;SDS011;11504;43.334;21.918;2023-05-28T15:14:06;10.0;;;10.0;;
22673;SDS011;11504;43.334;21.918;2023-05-28T15:18:43;9.0;;;8.0;;
22673;SDS011;11504;43.334;21.918;2023-05-28T15:23:19;9.0;;;8.0;;
22673;SDS011;11504;43.334;21.918;2023-05-28T15:27:57;9.0;;;8.0;;
22673;SDS011;11504;43.334;21.918;2023-05-28T15:32:36;9.0;;;8.0;;
22673;SDS011;11504;43.334;21.918;2023-05-28T15:37:16;9.0;;;9.0;;
22673;SDS011;11504;43.334;21.918;2023-05-28T15:41:54;9.0;;;9.0;;
22673;SDS011;11504;43.334;21.918;2023-05-28T15:46:39;8.0;;;8.0;;
22673;SDS011;11504;43.334;21.918;2023-05-28T15:51:19;8.0;;;8.0;;
22673;SDS011;11504;43.334;21.918;2023-05-28T15:55:56;7.0;;;7.0;;
22673;SDS011;11504;43.334;21.918;2023-05-28T16:00:34;7.0;;;7.0;;
22673;SDS011;11504;43.334;21.918;2023-05-28T16:05:14;8.0;;;7.0;;
22673;SDS011;11504;43.334;21.918;2023-05-28T16:09:55;8.0;;;7.0;;
22673;SDS011;11504;43.334;21.918;2023-05-28T16:14:33;8.0;;;7.0;;
22673;SDS011;11504;43.334;21.918;2023-05-28T16:19:18;8.0;;;7.0;;
22673;SDS011;11504;43.334;21.918;2023-05-28T16:23:57;8.0;;;7.0;;
22673;SDS011;11504;43.334;21.918;2023-05-28T16:28:34;8.0;;;8.0;;
22673;SDS011;11504;43.334;21.918;2023-05-28T16:33:13;8.0;;;8.0;;
22673;SDS011;11504;43.334;21.918;2023-05-28T16:37:51;8.0;;;8.0;;
22673;SDS011;11504;43.334;21.918;2023-05-28T16:42:31;8.0;;;8.0;;
22673;SDS011;11504;43.334;21.918;2023-05-28T16:47:13;8.0;;;8.0;;
22673;SDS011;11504;43.334;21.918;2023-05-28T16:51:52;8.0;;;8.0;;
22673;SDS011;11504;43.334;21.918;2023-05-28T16:56:29;9.0;;;8.0;;
22673;SDS011;11504;43.334;21.918;2023-05-28T17:01:05;9.0;;;8.0;;
22673;SDS011;11504;43.334;21.918;2023-05-28T17:05:42;9.0;;;8.0;;
22673;SDS011;11504;43.334;21.918;2023-05-28T17:10:18;9.0;;;8.0;;
22673;SDS011;11504;43.334;21.918;2023-05-28T17:14:54;9.0;;;8.0;;
22673;SDS011;11504;43.334;21.918;2023-05-28T17:19:31;9.0;;;9.0;;
22673;SDS011;11504;43.334;21.918;2023-05-28T17:24:07;9.0;;;9.0;;
22673;SDS011;11504;43.334;21.918;2023-05-28T17:28:43;8.0;;;8.0;;
22673;SDS011;11504;43.334;21.918;2023-05-28T17:33:19;8.0;;;8.0;;
22673;SDS011;11504;43.334;21.918;2023-05-28T17:37:55;8.0;;;8.0;;
22673;SDS011;11504;43.334;21.918;2023-05-28T17:42:31;8.0;;;8.0;;
22673;SDS011;11504;43.334;21.918;2023-05-28T17:47:08;8.0;;;8.0;;
22673;SDS011;11504;43.334;21.918;2023-05-28T17:51:45;8.0;;;8.0;;
22673;SDS011;11504;43.334;21.918;2023-05-28T17:56:21;9.0;;;8.0;;
22673;SDS011;11504;43.334;21.918;2023-05-28T18:00:57;9.0;;;8.0;;
22673;SDS011;11504;43.334;21.918;2023-05-28T18:05:34;10.0;;;9.0;;
22673;SDS011;11504;43.334;21.918;2023-05-28T18:10:10;10.0;;;9.0;;
22673;SDS011;11504;43.334;21.918;2023-05-28T18:14:47;10.0;;;9.0;;
22673;SDS011;11504;43.334;21.918;2023-05-28T18:19:23;10.0;;;10.0;;
22673;SDS011;11504;43.334;21.918;2023-05-28T18:24:08;10.0;;;10.0;;
22673;SDS011;11504;43.334;21.918;2023-05-28T18:28:47;12.0;;;10.0;;
22673;SDS011;11504;43.334;21.918;2023-05-28T18:33:24;12.0;;;10.0;;
22673;SDS011;11504;43.334;21.918;2023-05-28T18:38:01;13.0;;;11.0;;
22673;SDS011;11504;43.334;21.918;2023-05-28T18:42:37;13.0;;;11.0;;
22673;SDS011;11504;43.334;21.918;2023-05-28T18:47:14;11.0;;;10.0;;
22673;SDS011;11504;43.334;21.918;2023-05-28T18:51:51;11.0;;;10.0;;
22673;SDS011;11504;43.334;21.918;2023-05-28T18:56:28;9.0;;;9.0;;
22673;SDS011;11504;43.334;21.918;2023-05-28T19:01:05;9.0;;;9.0;;
22673;SDS011;11504;43.334;21.918;2023-05-28T19:05:42;8.0;;;8.0;;
22673;SDS011;11504;43.334;21.918;2023-05-28T19:10:19;8.0;;;8.0;;
22673;SDS011;11504;43.334;21.918;2023-05-28T19:14:56;8.0;;;8.0;;
22673;SDS011;11504;43.334;21.918;2023-05-28T19:19:33;8.0;;;7.0;;
22673;SDS011;11504;43.334;21.918;2023-05-28T19:24:10;8.0;;;7.0;;
22673;SDS011;11504;43.334;21.918;2023-05-28T19:28:47;8.0;;;8.0;;
22673;SDS011;11504;43.334;21.918;2023-05-28T19:33:23;8.0;;;8.0;;
22673;SDS011;11504;43.334;21.918;2023-05-28T19:38:00;8.0;;;8.0;;
22673;SDS011;11504;43.334;21.918;2023-05-28T19:42:37;8.0;;;8.0;;
22673;SDS011;11504;43.334;21.918;2023-05-28T19:47:13;9.0;;;8.0;;
22673;SDS011;11504;43.334;21.918;2023-05-28T19:51:50;9.0;;;8.0;;
22673;SDS011;11504;43.334;21.918;2023-05-28T19:56:26;10.0;;;9.0;;
22673;SDS011;11504;43.334;21.918;2023-05-28T20:01:02;10.0;;;9.0;;
22673;SDS011;11504;43.334;21.918;2023-05-28T20:05:38;10.0;;;9.0;;
22673;SDS011;11504;43.334;21.918;2023-05-28T20:10:15;10.0;;;9.0;;
22673;SDS011;11504;43.334;21.918;2023-05-28T20:14:51;10.0;;;9.0;;
22673;SDS011;11504;43.334;21.918;2023-05-28T20:19:27;10.0;;;9.0;;
22673;SDS011;11504;43.334;21.918;2023-05-28T20:24:03;10.0;;;9.0;;
22673;SDS011;11504;43.334;21.918;2023-05-28T20:28:40;10.0;;;10.0;;
22673;SDS011;11504;43.334;21.918;2023-05-28T20:33:17;10.0;;;10.0;;
22673;SDS011;11504;43.334;21.918;2023-05-28T20:37:53;11.0;;;10.0;;
22673;SDS011;11504;43.334;21.918;2023-05-28T20:42:31;11.0;;;10.0;;
22673;SDS011;11504;43.334;21.918;2023-05-28T20:47:07;11.0;;;10.0;;
22673;SDS011;11504;43.334;21.918;2023-05-28T20:51:43;11.0;;;10.0;;
22673;SDS011;11504;43.334;21.918;2023-05-28T20:56:21;11.0;;;11.0;;
22673;SDS011;11504;43.334;21.918;2023-05-28T21:00:57;11.0;;;11.0;;
22673;SDS011;11504;43.334;21.918;2023-05-28T21:05:34;10.0;;;10.0;;
22673;SDS011;11504;43.334;21.918;2023-05-28T21:10:10;10.0;;;10.0;;
22673;SDS011;11504;43.334;21.918;2023-05-28T21:14:47;10.0;;;10.0;;
22673;SDS011;11504;43.334;21.918;2023-05-28T21:19:24;10.0;;;10.0;;
22673;SDS011;11504;43.334;21.918;2023-05-28T21:24:01;10.0;;;10.0;;
22673;SDS011;11504;43.334;21.918;2023-05-28T21:28:39;11.0;;;11.0;;
22673;SDS011;11504;43.334;21.918;2023-05-28T21:33:16;11.0;;;11.0;;
22673;SDS011;11504;43.334;21.918;2023-05-28T21:37:53;12.0;;;12.0;;
22673;SDS011;11504;43.334;21.918;2023-05-28T21:42:29;12.0;;;12.0;;
22673;SDS011;11504;43.334;21.918;2023-05-28T21:47:06;12.0;;;12.0;;
22673;SDS011;11504;43.334;21.918;2023-05-28T21:51:44;12.0;;;12.0;;
22673;SDS011;11504;43.334;21.918;2023-05-28T21:56:25;12.0;;;12.0;;
22673;SDS011;11504;43.334;21.918;2023-05-28T22:01:02;12.0;;;12.0;;
22673;SDS011;11504;43.334;21.918;2023-05-28T22:05:39;10.0;;;10.0;;
22673;SDS011;11504;43.334;21.918;2023-05-28T22:10:17;10.0;;;10.0;;
22673;SDS011;11504;43.334;21.918;2023-05-28T22:14:55;10.0;;;10.0;;
22673;SDS011;11504;43.334;21.918;2023-05-28T22:19:31;9.0;;;8.0;;
22673;SDS011;11504;43.334;21.918;2023-05-28T22:24:08;9.0;;;8.0;;
22673;SDS011;11504;43.334;21.918;2023-05-28T22:28:45;10.0;;;9.0;;
22673;SDS011;11504;43.334;21.918;2023-05-28T22:33:21;10.0;;;9.0;;
22673;SDS011;11504;43.334;21.918;2023-05-28T22:37:58;11.0;;;10.0;;
22673;SDS011;11504;43.334;21.918;2023-05-28T22:42:34;11.0;;;10.0;;
22673;SDS011;11504;43.334;21.918;2023-05-28T22:47:11;11.0;;;10.0;;
22673;SDS011;11504;43.334;21.918;2023-05-28T22:51:47;11.0;;;10.0;;
22673;SDS011;11504;43.334;21.918;2023-05-28T22:56:23;11.0;;;10.0;;
22673;SDS011;11504;43.334;21.918;2023-05-28T23:00:59;11.0;;;10.0;;
22673;SDS011;11504;43.334;21.918;2023-05-28T23:05:35;12.0;;;11.0;;
22673;SDS011;11504;43.334;21.918;2023-05-28T23:10:12;12.0;;;11.0;;
22673;SDS011;11504;43.334;21.918;2023-05-28T23:14:48;12.0;;;11.0;;
22673;SDS011;11504;43.334;21.918;2023-05-28T23:19:25;13.0;;;12.0;;
22673;SDS011;11504;43.334;21.918;2023-05-28T23:24:01;13.0;;;12.0;;
22673;SDS011;11504;43.334;21.918;2023-05-28T23:28:40;13.0;;;12.0;;
22673;SDS011;11504;43.334;21.918;2023-05-28T23:33:16;13.0;;;12.0;;
22673;SDS011;11504;43.334;21.918;2023-05-28T23:37:53;13.0;;;12.0;;
22673;SDS011;11504;43.334;21.918;2023-05-28T23:42:31;13.0;;;12.0;;
22673;SDS011;11504;43.334;21.918;2023-05-28T23:47:07;12.0;;;11.0;;
22673;SDS011;11504;43.334;21.918;2023-05-28T23:51:45;12.0;;;11.0;;
22673;SDS011;11504;43.334;21.918;2023-05-28T23:56:22;11.0;;;10.0;;
